Frankenthal- Eppstein (101 m) : 18.12.2018
Datum Zeit
(MEZ)
Temp.
(2 m)
Temp.
(20 cm)
Luftfeuchte Blattnässe Nieder-
schlag
Wind Zeit
(MEZ)
[°C] [°C] [%] [%] [mm] [m/s]
18.12.2018 13:40 4.1 4.7 100 100 0.0 0.0 13:40
  13:35 3.9 4.5 100 100 0.0 0.0 13:35
  13:30 4.0 4.8 100 100 0.0 0.0 13:30
  13:25 3.9 4.9 100 100 0.0 0.2 13:25
  13:20 4.1 5.3 100 100 0.0 0.5 13:20
  13:15 4.3 5.3 100 100 0.0 0.3 13:15
  13:10 3.9 4.2 100 100 0.0 0.0 13:10
  13:05 3.6 3.9 100 100 0.0 0.0 13:05
  13:00 3.3 3.3 100 100 0.0 0.0 13:00
  12:55 3.1 3.5 100 100 0.0 0.0 12:55
  12:50 3.2 3.5 100 100 0.0 0.2 12:50
  12:45 3.4 4.0 100 100 0.0 0.2 12:45
  12:40 3.4 4.0 100 100 0.0 0.3 12:40
  12:35 4.0 4.9 100 100 0.0 0.5 12:35
  12:30 4.1 4.8 100 97 0.0 0.1 12:30
  12:25 3.9 4.3 100 100 0.0 0.7 12:25
  12:20 3.6 3.7 100 100 0.0 0.3 12:20
  12:15 3.7 4.3 100 100 0.0 1.3 12:15
  12:10 3.7 4.2 100 100 0.0 1.5 12:10
  12:05 3.3 3.6 100 100 0.0 1.5 12:05
  12:00 3.5 3.8 100 100 0.0 1.9 12:00
  11:55 3.3 3.5 100 100 0.0 1.9 11:55
  11:50 3.0 3.2 100 100 0.0 2.4 11:50
  11:45 3.0 3.2 100 100 0.0 2.2 11:45
18.12.2018 11:40 3.2 3.6 100 100 0.0 2.2 11:40
  11:35 3.3 3.6 100 100 0.0 2.0 11:35
  11:30 3.0 3.3 100 100 0.0 1.9 11:30
  11:25 3.3 4.1 100 100 0.0 2.0 11:25
  11:20 3.6 4.5 100 100 0.0 1.8 11:20
  11:15 3.1 3.6 100 100 0.0 1.9 11:15
  11:10 2.9 3.2 100 100 0.0 2.0 11:10
  11:05 3.2 3.8 100 100 0.0 1.6 11:05
  11:00 3.5 4.3 100 100 0.0 1.5 11:00
  10:55 3.5 4.4 100 100 0.0 1.4 10:55
  10:50 3.4 4.3 100 100 0.0 1.6 10:50
  10:45 3.5 4.4 100 100 0.0 2.0 10:45
  10:40 3.9 4.7 100 100 0.0 2.3 10:40
  10:35 4.6 5.2 100 98 0.0 2.1 10:35
  10:30 4.9 5.4 100 100 0.0 1.5 10:30
  10:25 4.7 5.3 100 100 0.0 1.7 10:25
  10:20 4.5 5.2 100 100 0.0 1.2 10:20
  10:15 4.3 5.0 100 100 0.0 1.2 10:15
  10:10 4.0 4.9 100 100 0.0 0.4 10:10
  10:05 3.6 4.5 100 100 0.0 0.1 10:05
  10:00 3.3 4.0 100 100 0.0 0.0 10:00
  09:55 3.4 4.0 100 100 0.0 0.0 09:55
  09:50 3.1 3.7 100 100 0.0 0.0 09:50
  09:45 2.2 2.2 100 100 0.0 0.0 09:45
18.12.2018 09:40 2.2 2.3 100 100 0.0 0.0 09:40
  09:35 2.3 2.3 100 100 0.0 0.0 09:35
  09:30 2.1 2.0 100 100 0.0 0.0 09:30
  09:25 1.9 1.8 100 100 0.0 0.0 09:25
  09:20 1.7 1.6 100 100 0.0 0.0 09:20
  09:15 1.6 1.5 100 100 0.0 0.0 09:15
  09:10 1.5 1.3 100 100 0.0 0.3 09:10
  09:05 1.6 1.2 100 100 0.0 0.0 09:05
  09:00 1.3 0.9 100 100 0.0 0.0 09:00
  08:55 1.1 0.8 100 100 0.0 0.0 08:55
  08:50 1.1 0.8 100 100 0.0 0.0 08:50
  08:45 1.1 0.7 100 100 0.0 0.0 08:45
  08:40 0.9 0.4 100 100 0.0 0.0 08:40
  08:35 0.7 0.2 100 100 0.0 0.0 08:35
  08:30 0.4 -0.1 100 100 0.0 0.0 08:30
  08:25 0.2 -0.4 100 100 0.1 0.0 08:25
  08:20 0.0 -0.7 100 100 0.0 0.0 08:20
  08:15 -0.1 -0.8 100 100 0.0 0.0 08:15
  08:10 -0.1 -0.8 100 100 0.0 0.0 08:10
  08:05 -0.1 -0.8 100 100 0.0 0.0 08:05
  08:00 -0.1 -0.7 100 100 0.0 0.0 08:00
  07:55 -0.1 -0.7 100 100 0.0 0.0 07:55
  07:50 -0.1 -0.6 100 100 0.0 0.0 07:50
  07:45 0.1 -0.5 100 100 0.0 0.0 07:45
18.12.2018 07:40 0.1 -0.5 100 100 0.0 0.0 07:40
  07:35 0.2 -0.3 100 100 0.0 0.0 07:35
  07:30 0.2 -0.2 100 100 0.0 0.0 07:30
  07:25 0.3 -0.1 100 100 0.0 0.0 07:25
  07:20 0.4 0.1 100 100 0.0 0.0 07:20
  07:15 0.6 0.2 100 100 0.0 0.0 07:15
  07:10 0.7 0.3 100 100 0.0 0.0 07:10
  07:05 0.8 0.3 100 100 0.0 0.0 07:05
  07:00 0.9 0.4 100 100 0.0 0.0 07:00
  06:55 0.9 0.4 100 100 0.0 0.0 06:55
  06:50 0.9 0.4 100 100 0.0 0.0 06:50
  06:45 0.9 0.3 100 100 0.0 0.0 06:45
  06:40 0.7 0.1 100 100 0.0 0.0 06:40
  06:35 0.6 0.0 100 100 0.0 0.0 06:35
  06:30 0.6 -0.1 100 100 0.0 0.0 06:30
  06:25 0.5 -0.3 100 100 0.0 0.0 06:25
  06:20 0.4 -0.3 100 100 0.0 0.0 06:20
  06:15 0.5 -0.2 100 100 0.0 0.0 06:15
  06:10 0.6 -0.2 100 100 0.0 0.0 06:10
  06:05 0.7 -0.1 100 100 0.0 0.0 06:05
  06:00 0.8 -0.1 100 100 0.0 0.0 06:00
  05:55 0.8 -0.2 100 100 0.0 0.0 05:55
  05:50 0.8 0.0 100 100 0.0 0.0 05:50
  05:45 1.1 0.2 100 100 0.0 0.0 05:45
18.12.2018 05:40 1.1 0.2 100 100 0.0 0.4 05:40
  05:35 0.9 0.1 100 100 0.0 0.0 05:35
  05:30 1.0 0.1 100 100 0.0 0.0 05:30
  05:25 1.0 0.1 100 100 0.0 0.1 05:25
  05:20 1.1 0.0 100 100 0.0 0.2 05:20
  05:15 1.0 0.0 100 100 0.0 0.5 05:15
  05:10 1.0 -0.1 100 100 0.0 0.1 05:10
  05:05 1.0 0.1 100 100 0.0 0.0 05:05
  05:00 1.2 0.3 100 100 0.0 0.0 05:00
  04:55 1.4 0.5 100 100 0.0 0.0 04:55
  04:50 1.4 0.6 100 100 0.0 0.2 04:50
  04:45 1.4 0.5 100 100 0.0 0.5 04:45
  04:40 1.1 0.2 100 100 0.0 0.5 04:40
  04:35 1.0 0.0 100 100 0.0 0.0 04:35
  04:30 1.0 -0.1 100 100 0.0 0.0 04:30
  04:25 1.3 0.1 100 100 0.0 0.0 04:25
  04:20 1.2 0.1 100 100 0.0 0.0 04:20
  04:15 1.3 0.1 100 100 0.0 0.0 04:15
  04:10 1.5 0.3 100 100 0.0 0.0 04:10
  04:05 1.6 0.4 100 100 0.0 0.0 04:05
  04:00 1.7 0.5 100 100 0.0 0.0 04:00
  03:55 1.7 0.5 100 100 0.0 0.0 03:55
  03:50 1.8 0.5 100 100 0.0 0.0 03:50
  03:45 1.9 0.6 100 100 0.0 0.0 03:45
18.12.2018 03:40 1.9 0.5 100 100 0.1 0.0 03:40
  03:35 2.0 0.5 100 100 0.0 0.7 03:35
  03:30 2.3 0.8 100 100 0.0 0.3 03:30
  03:25 2.4 0.9 100 100 0.0 0.1 03:25
  03:20 2.2 0.9 100 100 0.0 0.4 03:20
  03:15 2.1 0.9 100 100 0.0 0.0 03:15
  03:10 2.1 1.0 100 100 0.0 0.0 03:10
  03:05 2.1 1.2 100 100 0.0 0.0 03:05
  03:00 2.3 1.4 100 100 0.0 0.0 03:00
  02:55 2.5 1.5 100 100 0.0 0.0 02:55
  02:50 2.6 1.7 100 100 0.0 0.0 02:50
  02:45 2.9 1.9 100 100 0.0 0.0 02:45
  02:40 3.0 2.1 100 100 0.0 0.0 02:40
  02:35 3.1 2.3 100 100 0.0 0.0 02:35
  02:30 3.1 2.5 100 100 0.0 0.0 02:30
  02:25 3.2 2.5 100 100 0.0 0.0 02:25
  02:20 3.3 2.8 100 100 0.0 0.1 02:20
  02:15 3.4 2.9 100 100 0.0 0.0 02:15
  02:10 3.4 3.0 100 100 0.0 0.0 02:10
  02:05 3.5 3.2 100 100 0.0 0.0 02:05
  02:00 3.6 3.3 100 100 0.0 0.4 02:00
  01:55 3.7 3.4 100 100 0.0 1.1 01:55
  01:50 3.6 3.4 100 100 0.0 1.5 01:50
  01:45 3.5 3.3 100 100 0.0 1.7 01:45
18.12.2018 01:40 3.5 3.3 100 100 0.0 1.8 01:40
  01:35 3.3 3.1 100 100 0.0 1.4 01:35
  01:30 3.2 3.0 100 100 0.0 0.6 01:30
  01:25 3.2 3.0 100 100 0.0 0.2 01:25
  01:20 3.2 2.9 100 100 0.0 0.0 01:20
  01:15 3.2 2.9 100 100 0.0 0.0 01:15
  01:10 3.1 2.8 100 100 0.0 0.5 01:10
  01:05 3.0 2.6 100 100 0.0 0.6 01:05
  01:00 2.9 2.4 100 100 0.0 0.2 01:00
  00:50 3.0 2.3 100 100 0.0 0.0 00:50
  00:45 2.9 2.2 100 100 0.0 0.2 00:45
  00:40 2.8 2.3 100 100 0.0 0.1 00:40
  00:35 2.8 2.3 100 100 0.0 0.0 00:35
  00:30 2.7 2.3 100 100 0.0 0.0 00:30
  00:25 2.7 2.3 100 100 0.0 0.0 00:25
  00:20 2.5 2.2 100 100 0.0 0.2 00:20
  00:15 2.5 2.1 100 100 0.0 0.3 00:15
  00:10 2.6 2.1 100 100 0.0 0.8 00:10
  00:05 2.7 2.0 100 100 0.0 1.0 00:05
  00:00 2.7 2.0 100 100 0.0 0.7 00:00
17.12.2018 23:55 2.9 2.1 100 100 0.0 0.8 23:55
  23:50 3.1 2.4 100 100 0.0 1.0 23:50
  23:45 3.3 2.6 100 100 0.0 1.4 23:45
  23:40 3.4 2.7 100 100 0.0 1.3 23:40
  23:35 3.5 2.9 100 100 0.0 1.4 23:35
  23:30 3.6 3.1 100 100 0.0 1.3 23:30
  23:25 3.7 3.3 100 100 0.0 1.0 23:25
  23:20 3.6 3.3 100 100 0.0 1.2 23:20
  23:15 3.4 3.2 100 100 0.0 1.3 23:15
  23:10 3.2 3.0 100 100 0.0 1.3 23:10
  23:05 3.1 2.9 100 100 0.0 1.3 23:05
  23:00 2.9 2.8 100 100 0.0 1.0 23:00
  22:55 2.8 2.7 100 100 0.0 0.8 22:55
  22:50 2.8 2.6 100 100 0.0 0.8 22:50
  22:45 2.7 2.5 100 100 0.0 0.6 22:45
  22:40 2.6 2.4 100 100 0.0 0.3 22:40
  22:35 2.6 2.3 100 100 0.0 0.2 22:35
  22:30 2.5 2.2 100 100 0.0 0.3 22:30
  22:25 2.4 2.1 100 100 0.0 0.5 22:25
  22:20 2.4 2.0 100 100 0.0 0.6 22:20
  22:15 2.4 2.0 100 100 0.0 0.0 22:15
  22:10 2.4 1.9 100 100 0.0 0.0 22:10
  22:05 2.4 1.8 100 100 0.0 0.3 22:05
  22:00 2.3 1.7 100 100 0.0 0.9 22:00
17.12.2018 21:55 2.2 1.6 100 100 0.0 0.4 21:55
  21:50 2.1 1.4 100 100 0.0 0.0 21:50
  21:45 2.1 1.4 100 100 0.0 0.0 21:45
  21:40 2.2 1.5 100 100 0.0 0.5 21:40
  21:35 2.2 1.5 100 100 0.0 0.8 21:35
  21:30 1.9 1.1 100 100 0.0 1.6 21:30
  21:25 1.4 0.5 100 100 0.0 1.4 21:25
  21:20 1.0 -0.1 100 100 0.0 0.9 21:20
  21:15 0.9 -0.3 100 100 0.0 0.2 21:15
  21:10 1.1 -0.2 100 100 0.0 0.2 21:10
  21:05 1.1 -0.3 100 100 0.0 0.1 21:05
  21:00 1.4 -0.2 99 100 0.0 0.1 21:00
  20:55 1.7 0.0 100 100 0.0 0.0 20:55
  20:50 1.7 0.5 100 100 0.0 0.0 20:50
  20:45 1.8 0.6 100 100 0.0 0.1 20:45
  20:40 1.8 0.7 100 100 0.0 0.0 20:40
  20:35 1.9 0.8 100 100 0.0 0.0 20:35
  20:30 1.9 0.8 100 100 0.0 0.0 20:30
  20:25 2.1 0.9 100 100 0.0 0.0 20:25
  20:20 2.2 1.0 100 100 0.0 0.0 20:20
  20:15 2.5 1.1 100 100 0.0 0.0 20:15
  20:10 2.2 1.0 100 100 0.0 0.0 20:10
  20:05 2.0 0.9 99 100 0.0 0.1 20:05
  20:00 2.2 1.0 100 100 0.0 0.6 20:00
17.12.2018 19:55 2.2 1.0 100 100 0.0 0.5 19:55
  19:50 2.3 1.1 99 100 0.0 0.3 19:50
  19:45 2.3 1.3 100 100 0.0 0.2 19:45
  19:40 2.4 1.4 100 100 0.0 0.0 19:40
  19:35 2.4 1.4 99 100 0.0 0.0 19:35
  19:30 2.4 1.4 99 100 0.0 0.0 19:30
  19:25 2.6 1.6 99 100 0.0 0.7 19:25
  19:20 2.8 1.9 99 100 0.0 0.1 19:20
  19:15 2.9 2.0 99 100 0.0 1.0 19:15
  19:10 2.9 2.2 99 100 0.0 0.8 19:10
  19:05 3.0 2.3 99 100 0.0 0.4 19:05
  19:00 3.1 2.5 99 100 0.0 0.7 19:00
  18:55 3.2 2.6 99 100 0.0 1.1 18:55
  18:50 3.3 2.7 99 100 0.0 0.9 18:50
  18:45 3.4 2.9 98 100 0.0 1.1 18:45
  18:40 3.5 3.1 98 100 0.0 1.1 18:40
  18:35 3.6 3.1 98 100 0.0 0.9 18:35
  18:30 3.7 3.2 99 100 0.0 0.6 18:30
  18:25 3.8 3.4 98 100 0.0 0.0 18:25
  18:20 3.9 3.6 98 100 0.0 0.0 18:20
  18:15 4.1 3.8 98 100 0.0 0.3 18:15
  18:10 4.1 3.8 98 100 0.0 0.7 18:10
  18:05 4.2 3.9 98 100 0.0 1.4 18:05
  18:00 4.2 3.9 98 100 0.0 1.3 18:00
17.12.2018 17:55 4.2 3.9 98 100 0.0 1.5 17:55
  17:50 4.2 4.0 98 100 0.0 1.6 17:50
  17:45 4.3 4.0 98 100 0.0 1.7 17:45
  17:40 4.3 4.0 98 100 0.0 2.1 17:40
  17:35 4.3 4.0 98 100 0.0 2.8 17:35
  17:30 4.4 4.1 98 100 0.0 3.0 17:30
  17:25 4.5 4.2 98 100 0.0 3.3 17:25
  17:20 4.5 4.2 98 100 0.0 2.5 17:20
  17:15 4.5 4.2 98 100 0.0 2.2 17:15
  17:10 4.6 4.3 98 100 0.0 1.9 17:10
  17:05 4.6 4.3 98 100 0.0 2.1 17:05
  17:00 4.6 4.3 98 100 0.0 1.9 17:00
  16:55 4.6 4.3 98 100 0.0 1.8 16:55
  16:50 4.7 4.3 99 100 0.1 1.7 16:50
  16:45 4.7 4.4 99 100 0.1 1.7 16:45
  16:40 4.6 4.3 99 100 0.0 1.8 16:40
  16:35 4.6 4.3 99 100 0.0 0.7 16:35
  16:30 4.6 4.4 99 100 0.0 0.8 16:30
  16:25 4.7 4.4 99 100 0.0 1.3 16:25
  16:20 4.7 4.5 99 100 0.0 1.1 16:20
  16:15 4.8 4.6 99 100 0.0 1.2 16:15
  16:10 4.8 4.6 99 100 0.0 1.1 16:10
  16:05 4.8 4.7 99 100 0.0 1.2 16:05
  16:00 4.9 4.7 99 100 0.0 1.1 16:00
17.12.2018 15:55 4.9 4.7 99 100 0.0 1.4 15:55
  15:50 4.9 4.7 99 100 0.0 2.0 15:50
  15:45 5.0 4.8 99 100 0.0 1.3 15:45
  15:40 5.1 4.8 99 100 0.0 1.5 15:40
  15:35 5.0 4.8 99 100 0.0 1.3 15:35
  15:30 5.1 5.0 99 100 0.0 1.3 15:30
  15:25 5.2 5.0 100 100 0.0 1.0 15:25
  15:20 4.9 4.8 100 100 0.0 1.3 15:20
  15:15 4.9 4.8 100 100 0.0 1.1 15:15
  15:10 4.8 4.8 100 100 0.0 1.1 15:10
  15:05 4.8 4.8 99 100 0.0 1.0 15:05
  15:00 4.8 4.7 99 100 0.0 1.2 15:00
  14:55 4.8 4.7 99 100 0.0 1.2 14:55
  14:50 4.8 4.7 99 100 0.0 1.2 14:50
  14:45 4.9 4.7 99 100 0.0 1.1 14:45
  14:40 4.9 4.8 99 100 0.0 1.2 14:40
  14:35 4.9 4.8 99 100 0.0 1.4 14:35
  14:30 4.8 4.8 99 100 0.0 1.3 14:30
  14:25 5.1 5.0 99 100 0.0 1.8 14:25
  14:20 5.4 5.4 99 100 0.0 1.9 14:20
  14:15 6.3 6.8 100 100 0.0 1.1 14:15
  14:10 5.4 5.7 100 100 0.0 1.4 14:10
  14:05 5.1 5.3 100 100 0.0 1.7 14:05
  14:00 4.6 4.7 100 100 0.0 2.4 14:00
17.12.2018 13:55 4.5 4.6 100 100 0.0 2.2 13:55
  13:50 4.3 4.4 100 100 0.0 2.6 13:50
  13:45 4.3 4.5 100 100 0.0 2.4 13:45
  13:40 4.3 4.5 100 100 0.0 2.3 13:40
    Temp.
(2 m)
Temp.
(20 cm)
Luftfeuchte Blattnässe Nieder-
schlag
Wind  
[°C] [°C] [%] [%] [mm] [m/s]
 
  Ø 2.8 2.4 99 100 - 0.7 Ø
  Min. -0.1 -0.8 - - - - Min.
  Max. 6.3 6.8 - - - - Max.
  - - - - 0.4 -
Quelle: Agrarmeteorologie Rheinland-Pfalz,
alle Angaben ohne Gewähr!
Zuletzt geändert: 18.12.18 - 13:59 Uhr